Feasterville Trevose, Pennsylvania
Current Conditions -  °F | °C
As of 10:54 AM on Saturday 22 Nov 2014 (Local Time) from KPNE Reporting Station
Clear Clear  
Wind Chill: 31°   Ceiling: Unl
Heat Index: 39°   Visibility: 10mi
Dew Point: 13°   Wind: 14mph
Humidity: 34%   Direction: 230°SW
Pressure: 30.48"   Gusts: 28mph
Location:  40.15°N, 74.98°W
Report Text: KPNE 221554Z AUTO 23012G24KT 10SM CLR 04/M11 A3048 RMK AO2 SLP323 T00391106 TSNO
Loading
Personal Weather Stations






























Interactive Weather Map New forecast layout! Learn more

10-Day Weather Forecast

Advertisements
Track Severe Weather on mobile